createdAt,value
2022-09-16T00:01:28.896Z,21.77
2022-09-16T00:04:34.512Z,21.63
2022-09-16T00:07:39.371Z,21.48
2022-09-16T00:10:45.847Z,21.52
2022-09-16T00:13:51.209Z,21.52
2022-09-16T00:16:56.377Z,21.44
2022-09-16T00:20:03.439Z,21.48
2022-09-16T00:23:08.336Z,21.38
2022-09-16T00:26:14.247Z,21.41
2022-09-16T00:29:20.354Z,21.30
2022-09-16T00:32:25.988Z,21.40
2022-09-16T00:35:31.109Z,21.30
2022-09-16T00:38:36.906Z,21.38
2022-09-16T00:41:45.874Z,21.57
2022-09-16T00:45:22.957Z,21.68
2022-09-16T00:48:32.507Z,21.53
2022-09-16T00:51:39.127Z,21.62
2022-09-16T00:54:39.085Z,21.63
2022-09-16T00:57:32.984Z,21.79
2022-09-16T01:00:38.764Z,21.81
2022-09-16T01:03:44.818Z,21.89
2022-09-16T01:06:52.339Z,21.87
2022-09-16T01:09:58.128Z,22.02
2022-09-16T01:13:08.535Z,21.89
2022-09-16T01:16:40.551Z,21.86
2022-09-16T01:20:15.489Z,21.95
2022-09-16T01:23:48.775Z,22.07
2022-09-16T01:26:56.699Z,21.95
2022-09-16T01:30:08.168Z,22.10
2022-09-16T01:33:20.339Z,22.15
2022-09-16T01:36:42.590Z,22.13
2022-09-16T01:40:16.262Z,22.17
2022-09-16T01:43:35.640Z,22.06
2022-09-16T01:46:52.744Z,22.16
2022-09-16T01:50:21.802Z,22.23
2022-09-16T01:53:49.263Z,22.24
2022-09-16T01:57:25.349Z,22.28
2022-09-16T02:00:31.358Z,22.31
2022-09-16T02:03:48.377Z,22.41
2022-09-16T02:06:54.587Z,22.31
2022-09-16T02:10:10.348Z,22.28
2022-09-16T02:13:20.914Z,22.15
2022-09-16T02:16:30.478Z,22.36
2022-09-16T02:19:34.591Z,22.29
2022-09-16T02:22:32.027Z,21.88
2022-09-16T02:25:36.827Z,21.62
2022-09-16T02:28:45.243Z,21.49
2022-09-16T02:31:55.478Z,21.49
2022-09-16T02:35:02.631Z,21.59
2022-09-16T02:38:21.585Z,21.29
2022-09-16T02:41:27.554Z,21.47
2022-09-16T02:44:32.826Z,21.53
2022-09-16T02:47:51.359Z,21.65
2022-09-16T02:51:01.765Z,21.71
2022-09-16T02:54:12.172Z,21.88
2022-09-16T02:57:18.562Z,21.75
2022-09-16T03:00:24.492Z,21.81
2022-09-16T03:03:31.125Z,21.69
2022-09-16T03:06:43.159Z,21.91
2022-09-16T03:09:51.181Z,22.17
2022-09-16T03:13:27.387Z,22.28
2022-09-16T03:16:47.697Z,22.32
2022-09-16T03:20:23.991Z,22.31
2022-09-16T03:23:46.262Z,22.09
2022-09-16T03:27:17.951Z,22.23
2022-09-16T03:30:25.153Z,21.94
2022-09-16T03:33:41.386Z,21.69
2022-09-16T03:36:49.853Z,21.73
2022-09-16T03:39:56.087Z,21.91
2022-09-16T03:43:04.608Z,21.70
2022-09-16T03:46:11.557Z,21.74
2022-09-16T03:49:18.092Z,22.11
2022-09-16T03:52:25.261Z,22.23
2022-09-16T03:55:30.979Z,22.14
2022-09-16T03:58:37.090Z,22.32
2022-09-16T04:01:42.699Z,22.36
2022-09-16T04:04:48.557Z,22.22
2022-09-16T04:07:55.121Z,22.26
2022-09-16T04:11:15.549Z,21.98
2022-09-16T04:14:15.053Z,22.07
2022-09-16T04:17:14.232Z,22.26
2022-09-16T04:20:20.311Z,22.16
2022-09-16T04:23:25.991Z,22.22
2022-09-16T04:26:32.054Z,22.06
2022-09-16T04:29:39.269Z,22.18
2022-09-16T04:32:46.486Z,22.30
2022-09-16T04:35:53.110Z,22.22
2022-09-16T04:39:01.890Z,22.14
2022-09-16T04:42:07.574Z,22.42
2022-09-16T04:45:13.053Z,22.26
2022-09-16T04:48:20.438Z,22.27
2022-09-16T04:51:27.613Z,22.32
2022-09-16T04:54:32.700Z,22.51
2022-09-16T04:57:39.724Z,22.60
2022-09-16T05:00:45.473Z,22.87
2022-09-16T05:03:51.804Z,23.03
2022-09-16T05:07:02.333Z,23.02
2022-09-16T05:10:07.537Z,23.24
2022-09-16T05:13:14.001Z,23.14
2022-09-16T05:16:24.552Z,23.16
2022-09-16T05:19:30.316Z,23.07
2022-09-16T05:22:38.585Z,23.25
2022-09-16T05:25:44.129Z,23.37
2022-09-16T05:28:50.124Z,23.71
2022-09-16T05:31:56.583Z,23.69
2022-09-16T05:35:02.312Z,23.68
2022-09-16T05:38:07.836Z,23.77
2022-09-16T05:41:19.257Z,23.78
2022-09-16T05:44:25.321Z,23.93
2022-09-16T05:47:30.709Z,24.05
2022-09-16T05:50:36.945Z,24.10
2022-09-16T05:53:43.395Z,24.31
2022-09-16T05:56:52.970Z,24.27
2022-09-16T06:00:04.451Z,24.25
2022-09-16T06:03:11.272Z,24.23
2022-09-16T06:06:46.584Z,24.25
2022-09-16T06:09:52.373Z,24.50
2022-09-16T06:12:57.821Z,24.68
2022-09-16T06:16:04.900Z,24.81
2022-09-16T06:19:10.303Z,25.23
2022-09-16T06:22:32.085Z,25.66
2022-09-16T06:25:38.798Z,26.03
2022-09-16T06:28:44.844Z,26.29
2022-09-16T06:31:50.848Z,26.19
2022-09-16T06:34:57.381Z,26.46
2022-09-16T06:38:03.260Z,26.79
2022-09-16T06:41:08.650Z,26.42
2022-09-16T06:44:14.180Z,26.60
2022-09-16T06:47:21.448Z,26.79
2022-09-16T06:50:27.280Z,26.84
2022-09-16T06:53:33.949Z,26.78
2022-09-16T06:56:34.744Z,27.06
2022-09-16T06:59:42.567Z,27.20
2022-09-16T07:02:48.830Z,27.44
2022-09-16T07:05:54.670Z,27.58
2022-09-16T07:09:00.109Z,27.63
2022-09-16T07:12:09.500Z,27.71
2022-09-16T07:15:14.868Z,27.89
2022-09-16T07:18:20.100Z,27.97
2022-09-16T07:21:29.031Z,27.99
2022-09-16T07:24:35.076Z,28.05
2022-09-16T07:27:40.500Z,28.31
2022-09-16T07:30:46.203Z,28.48
2022-09-16T07:33:56.617Z,28.77
2022-09-16T07:37:03.566Z,28.99
2022-09-16T07:40:10.072Z,29.38
2022-09-16T07:43:16.495Z,29.68
2022-09-16T07:46:23.870Z,29.59
2022-09-16T07:49:29.338Z,29.71
2022-09-16T07:52:36.802Z,29.69
2022-09-16T07:55:41.981Z,29.47
2022-09-16T07:58:48.930Z,29.41
2022-09-16T08:01:55.799Z,29.30
2022-09-16T08:05:02.174Z,29.39
2022-09-16T08:08:08.385Z,29.48
2022-09-16T08:11:13.335Z,29.42
2022-09-16T08:14:18.844Z,29.31
2022-09-16T08:17:23.938Z,29.33
2022-09-16T08:20:32.326Z,29.25
2022-09-16T08:23:38.227Z,29.24
2022-09-16T08:26:43.804Z,29.39
2022-09-16T08:29:49.362Z,29.45
2022-09-16T08:32:55.840Z,29.56
2022-09-16T08:36:24.701Z,29.43
2022-09-16T08:39:31.457Z,29.51
2022-09-16T08:43:04.111Z,29.73
2022-09-16T08:46:20.304Z,30.00
2022-09-16T08:49:54.820Z,29.97
2022-09-16T08:53:02.096Z,29.99
2022-09-16T08:56:07.928Z,30.24
2022-09-16T08:59:16.750Z,30.16
2022-09-16T09:02:47.736Z,30.18
2022-09-16T09:06:12.398Z,30.09
2022-09-16T09:09:56.486Z,30.43
2022-09-16T09:13:17.685Z,30.39
2022-09-16T09:16:41.088Z,30.57
2022-09-16T09:20:03.871Z,30.48
2022-09-16T09:23:37.951Z,30.10
2022-09-16T09:27:08.434Z,29.82
2022-09-16T09:30:42.485Z,29.66
2022-09-16T09:33:58.267Z,29.66
2022-09-16T09:37:38.497Z,29.54
2022-09-16T09:40:58.147Z,29.21
2022-09-16T09:44:41.782Z,29.41
2022-09-16T09:47:58.350Z,29.39
2022-09-16T09:51:07.182Z,29.22
2022-09-16T09:54:16.380Z,29.14
2022-09-16T09:57:27.335Z,29.08
2022-09-16T10:00:34.008Z,29.11
2022-09-16T10:03:41.071Z,28.96
2022-09-16T10:06:48.698Z,29.20
2022-09-16T10:10:03.253Z,29.42
2022-09-16T10:13:07.698Z,29.44
2022-09-16T10:16:30.267Z,29.73
2022-09-16T10:19:39.692Z,30.07
2022-09-16T10:22:47.433Z,30.33
2022-09-16T10:25:52.406Z,30.54
2022-09-16T10:28:58.909Z,30.70
2022-09-16T10:32:06.190Z,30.65
2022-09-16T10:35:11.915Z,30.71
2022-09-16T10:38:30.803Z,30.70
2022-09-16T10:41:57.810Z,30.54
2022-09-16T10:45:03.476Z,30.64
2022-09-16T10:48:15.460Z,30.97
2022-09-16T10:51:21.913Z,30.77
2022-09-16T10:54:42.032Z,31.06
2022-09-16T10:57:49.806Z,30.75
2022-09-16T11:01:14.527Z,30.55
2022-09-16T11:04:39.938Z,30.25
2022-09-16T11:07:58.125Z,30.59
2022-09-16T11:11:20.933Z,30.40
2022-09-16T11:14:43.575Z,30.34
2022-09-16T11:18:29.626Z,30.21
2022-09-16T11:21:51.781Z,30.22
2022-09-16T11:25:15.290Z,30.05
2022-09-16T11:28:44.801Z,30.18
2022-09-16T11:32:25.763Z,30.11
2022-09-16T11:35:48.286Z,29.93
2022-09-16T11:39:28.051Z,30.10
2022-09-16T11:42:51.679Z,30.18
2022-09-16T11:46:17.435Z,30.10
2022-09-16T11:49:54.825Z,30.31
2022-09-16T11:53:34.434Z,30.55
2022-09-16T11:56:58.615Z,30.62
2022-09-16T12:00:12.486Z,30.55
2022-09-16T12:03:47.345Z,30.74
2022-09-16T12:07:13.093Z,30.84
2022-09-16T12:10:33.155Z,30.95
2022-09-16T12:14:20.975Z,31.04
2022-09-16T12:17:33.669Z,31.21
2022-09-16T12:20:52.489Z,31.16
2022-09-16T12:24:01.773Z,31.14
2022-09-16T12:27:35.427Z,31.01
2022-09-16T12:30:54.143Z,31.00
2022-09-16T12:34:13.262Z,30.65
2022-09-16T12:37:26.547Z,30.56
2022-09-16T12:40:40.011Z,30.52
2022-09-16T12:44:06.381Z,30.25
2022-09-16T12:47:28.507Z,29.92
2022-09-16T12:50:53.789Z,29.65
2022-09-16T12:55:04.143Z,29.55
2022-09-16T12:58:23.169Z,29.36
2022-09-16T13:01:41.977Z,29.02
2022-09-16T13:04:46.385Z,28.83
2022-09-16T13:07:49.966Z,28.55
2022-09-16T13:11:12.127Z,28.42
2022-09-16T13:14:06.520Z,28.11
2022-09-16T13:17:12.433Z,27.80
2022-09-16T13:20:39.803Z,27.54
2022-09-16T13:23:48.297Z,27.32
2022-09-16T13:26:58.518Z,27.10
2022-09-16T13:30:04.126Z,27.20
2022-09-16T13:33:14.155Z,26.95
2022-09-16T13:36:30.611Z,27.33
2022-09-16T13:39:50.290Z,27.33
2022-09-16T13:42:54.685Z,27.11
2022-09-16T13:46:00.604Z,27.06
2022-09-16T13:49:28.785Z,26.88
2022-09-16T13:52:50.099Z,26.76
2022-09-16T13:55:55.963Z,26.68
2022-09-16T13:59:28.642Z,26.56
2022-09-16T14:02:51.673Z,26.32
2022-09-16T14:06:17.042Z,26.17
2022-09-16T14:10:01.576Z,26.33
2022-09-16T14:13:32.423Z,26.07
2022-09-16T14:16:43.892Z,26.08
2022-09-16T14:19:53.686Z,25.97
2022-09-16T14:22:58.770Z,25.71
2022-09-16T14:26:04.444Z,25.57
2022-09-16T14:29:18.207Z,25.73
2022-09-16T14:32:25.855Z,25.61
2022-09-16T14:35:37.001Z,25.61
2022-09-16T14:38:53.663Z,25.34
2022-09-16T14:42:02.435Z,25.52
2022-09-16T14:45:08.603Z,25.42
2022-09-16T14:48:15.975Z,25.40
2022-09-16T14:51:29.010Z,25.34
2022-09-16T14:54:30.058Z,25.41
2022-09-16T14:57:36.651Z,25.33
2022-09-16T15:00:49.798Z,25.51
2022-09-16T15:04:11.300Z,25.52
2022-09-16T15:07:34.621Z,25.42
2022-09-16T15:10:56.724Z,25.47
2022-09-16T15:13:52.139Z,25.55
2022-09-16T15:17:04.486Z,25.22
2022-09-16T15:20:13.685Z,25.04
2022-09-16T15:23:19.876Z,24.93
2022-09-16T15:26:33.067Z,25.09
2022-09-16T15:29:45.651Z,25.02
2022-09-16T15:32:58.576Z,24.72
2022-09-16T15:36:05.063Z,24.68
2022-09-16T15:39:13.555Z,24.67
2022-09-16T15:42:33.368Z,24.64
2022-09-16T15:45:38.926Z,24.66
2022-09-16T15:48:53.429Z,24.43
2022-09-16T15:52:04.119Z,24.42
2022-09-16T15:55:14.931Z,24.43
2022-09-16T15:58:25.149Z,24.31
2022-09-16T16:01:54.961Z,24.14
2022-09-16T16:05:00.717Z,24.08
2022-09-16T16:08:10.042Z,23.85
2022-09-16T16:11:30.309Z,23.83
2022-09-16T16:14:16.978Z,23.60
2022-09-16T16:17:20.773Z,23.43
2022-09-16T16:20:21.623Z,23.27
2022-09-16T16:23:27.114Z,23.20
2022-09-16T16:26:33.165Z,23.06
2022-09-16T16:29:38.366Z,23.07
2022-09-16T16:32:45.208Z,23.06
2022-09-16T16:35:49.993Z,23.07
2022-09-16T16:38:55.247Z,23.10
2022-09-16T16:42:01.909Z,22.93
2022-09-16T16:45:07.291Z,22.93
2022-09-16T16:48:13.068Z,22.80
2022-09-16T16:51:22.674Z,22.62
2022-09-16T16:54:27.552Z,22.74
2022-09-16T16:57:33.336Z,22.61
2022-09-16T17:00:38.405Z,22.33
2022-09-16T17:03:45.028Z,22.37
2022-09-16T17:07:14.422Z,22.49
2022-09-16T17:09:59.980Z,22.58
2022-09-16T17:13:05.156Z,22.64
2022-09-16T17:16:10.660Z,22.37
2022-09-16T17:19:16.733Z,22.27
2022-09-16T17:22:23.354Z,22.37
2022-09-16T17:25:30.057Z,22.30
2022-09-16T17:28:35.344Z,22.35
2022-09-16T17:31:42.892Z,22.39
2022-09-16T17:34:49.056Z,22.26
2022-09-16T17:37:54.534Z,22.09
2022-09-16T17:40:59.835Z,22.09
2022-09-16T17:44:06.435Z,22.09
2022-09-16T17:47:12.729Z,21.98
2022-09-16T17:50:22.265Z,21.96
2022-09-16T17:53:25.635Z,21.95
2022-09-16T17:56:31.505Z,21.79
2022-09-16T17:59:37.413Z,21.69
2022-09-16T18:02:42.606Z,21.62
2022-09-16T18:05:49.904Z,21.61
2022-09-16T18:08:57.392Z,21.24
2022-09-16T18:12:05.214Z,21.15
2022-09-16T18:15:11.260Z,21.32
2022-09-16T18:18:17.962Z,20.86
2022-09-16T18:21:26.753Z,20.95
2022-09-16T18:24:32.375Z,21.01
2022-09-16T18:27:40.706Z,21.09
2022-09-16T18:30:45.247Z,21.12
2022-09-16T18:33:44.652Z,20.91
2022-09-16T18:36:51.181Z,20.83
2022-09-16T18:39:56.140Z,20.71
2022-09-16T18:43:02.209Z,20.77
2022-09-16T18:46:07.840Z,20.74
2022-09-16T18:49:14.303Z,20.48
2022-09-16T18:52:20.376Z,20.65
2022-09-16T18:55:25.732Z,20.48
2022-09-16T18:58:31.908Z,20.59
2022-09-16T19:01:47.197Z,20.63
2022-09-16T19:04:55.382Z,20.49
2022-09-16T19:08:01.074Z,20.48
2022-09-16T19:11:06.108Z,20.24
2022-09-16T19:14:12.372Z,20.34
2022-09-16T19:17:17.326Z,20.28
2022-09-16T19:20:22.253Z,20.45
2022-09-16T19:23:27.576Z,20.33
2022-09-16T19:26:33.352Z,20.31
2022-09-16T19:29:39.904Z,20.06
2022-09-16T19:32:46.321Z,20.14
2022-09-16T19:35:51.377Z,20.20
2022-09-16T19:38:56.887Z,19.94
2022-09-16T19:42:02.342Z,20.15
2022-09-16T19:45:07.967Z,20.16
2022-09-16T19:48:13.731Z,20.14
2022-09-16T19:51:22.017Z,20.12
2022-09-16T19:54:26.744Z,20.09
2022-09-16T19:57:32.564Z,20.06
2022-09-16T20:00:55.516Z,19.86
2022-09-16T20:03:47.990Z,19.88
2022-09-16T20:06:55.435Z,19.78
2022-09-16T20:10:02.717Z,19.75
2022-09-16T20:13:10.009Z,19.63
2022-09-16T20:16:17.349Z,19.75
2022-09-16T20:19:26.768Z,19.81
2022-09-16T20:22:32.424Z,19.94
2022-09-16T20:25:38.125Z,19.85
2022-09-16T20:28:51.325Z,19.75
2022-09-16T20:31:59.336Z,19.82
2022-09-16T20:35:04.988Z,19.88
2022-09-16T20:38:11.587Z,19.81
2022-09-16T20:41:26.599Z,19.63
2022-09-16T20:44:32.471Z,19.75
2022-09-16T20:47:38.823Z,19.69
2022-09-16T20:50:45.585Z,19.51
2022-09-16T20:53:51.020Z,19.24
2022-09-16T20:56:59.834Z,19.08
2022-09-16T21:00:04.375Z,19.32
2022-09-16T21:03:09.130Z,18.75
2022-09-16T21:06:23.166Z,18.92
2022-09-16T21:09:29.804Z,19.15
2022-09-16T21:12:36.762Z,18.81
2022-09-16T21:15:43.285Z,18.71
2022-09-16T21:18:49.667Z,18.70
2022-09-16T21:21:58.295Z,18.98
2022-09-16T21:25:03.573Z,18.89
2022-09-16T21:28:10.590Z,19.04
2022-09-16T21:31:17.539Z,18.85
2022-09-16T21:34:31.904Z,18.77
2022-09-16T21:37:38.888Z,18.72
2022-09-16T21:40:44.584Z,18.94
2022-09-16T21:43:58.218Z,18.90
2022-09-16T21:47:03.720Z,18.51
2022-09-16T21:50:11.258Z,18.38
2022-09-16T21:53:16.318Z,18.58
2022-09-16T21:56:24.027Z,18.37
2022-09-16T21:59:30.915Z,18.40
2022-09-16T22:02:36.546Z,18.52
2022-09-16T22:05:41.439Z,18.55
2022-09-16T22:08:49.147Z,18.49
2022-09-16T22:11:55.851Z,18.55
2022-09-16T22:15:02.073Z,18.45
2022-09-16T22:18:09.162Z,18.52
2022-09-16T22:21:19.296Z,18.42
2022-09-16T22:24:28.042Z,18.68
2022-09-16T22:27:34.584Z,18.45
2022-09-16T22:30:40.645Z,18.59
2022-09-16T22:33:45.938Z,18.56
2022-09-16T22:36:52.529Z,18.25
2022-09-16T22:39:59.454Z,18.36
2022-09-16T22:43:05.972Z,18.44
2022-09-16T22:46:18.838Z,18.43
2022-09-16T22:49:17.662Z,18.40
2022-09-16T22:52:24.209Z,18.37
2022-09-16T22:55:30.863Z,18.32
2022-09-16T22:58:36.757Z,18.39
2022-09-16T23:01:45.605Z,18.34
2022-09-16T23:04:51.251Z,18.44
2022-09-16T23:07:57.083Z,18.42
2022-09-16T23:11:03.423Z,18.28
2022-09-16T23:14:09.218Z,18.33
2022-09-16T23:17:15.396Z,18.24
2022-09-16T23:20:15.312Z,18.36
2022-09-16T23:23:21.804Z,18.32
2022-09-16T23:26:32.515Z,18.43
2022-09-16T23:29:39.342Z,18.53
2022-09-16T23:32:45.011Z,18.49
2022-09-16T23:35:51.053Z,18.24
2022-09-16T23:38:55.679Z,18.27
2022-09-16T23:42:02.115Z,18.22
2022-09-16T23:45:06.859Z,18.43
2022-09-16T23:48:12.748Z,18.38
2022-09-16T23:51:18.434Z,18.22
2022-09-16T23:54:24.407Z,18.11
2022-09-16T23:57:24.063Z,18.04
